createdAt,value
2018-03-20T00:00:02.347Z,-4.40
2018-03-20T00:02:32.253Z,-4.40
2018-03-20T00:05:02.931Z,-4.50
2018-03-20T00:07:33.469Z,-4.50
2018-03-20T00:10:02.843Z,-4.50
2018-03-20T00:12:32.771Z,-4.50
2018-03-20T00:15:02.228Z,-4.50
2018-03-20T00:17:32.758Z,-4.70
2018-03-20T00:20:02.776Z,-4.70
2018-03-20T00:22:32.795Z,-4.70
2018-03-20T00:25:03.465Z,-4.70
2018-03-20T00:27:34.327Z,-4.70
2018-03-20T00:30:04.698Z,-4.80
2018-03-20T00:32:36.006Z,-4.90
2018-03-20T00:35:05.499Z,-4.90
2018-03-20T00:37:35.632Z,-4.90
2018-03-20T00:40:06.074Z,-4.90
2018-03-20T00:42:35.127Z,-5.00
2018-03-20T00:45:04.608Z,-5.10
2018-03-20T00:47:34.387Z,-5.10
2018-03-20T00:50:04.639Z,-5.20
2018-03-20T00:52:34.057Z,-5.20
2018-03-20T00:55:05.503Z,-5.40
2018-03-20T00:57:35.600Z,-5.50
2018-03-20T01:00:05.317Z,-5.40
2018-03-20T01:02:35.282Z,-5.40
2018-03-20T01:05:05.139Z,-5.40
2018-03-20T01:07:35.481Z,-5.30
2018-03-20T01:10:05.150Z,-5.40
2018-03-20T01:12:34.514Z,-5.40
2018-03-20T01:15:03.602Z,-5.40
2018-03-20T01:17:32.866Z,-5.30
2018-03-20T01:20:02.619Z,-5.30
2018-03-20T01:22:31.716Z,-5.30
2018-03-20T01:25:00.914Z,-5.30
2018-03-20T01:27:32.382Z,-5.20
2018-03-20T01:30:02.097Z,-5.20
2018-03-20T01:32:31.295Z,-5.20
2018-03-20T01:35:00.706Z,-5.30
2018-03-20T01:37:29.479Z,-5.20
2018-03-20T01:39:58.808Z,-5.30
2018-03-20T01:42:28.927Z,-5.40
2018-03-20T01:44:59.208Z,-5.50
2018-03-20T01:47:27.849Z,-5.50
2018-03-20T01:49:56.322Z,-5.60
2018-03-20T01:52:25.083Z,-5.60
2018-03-20T01:54:53.776Z,-5.60
2018-03-20T01:57:23.382Z,-5.60
2018-03-20T01:59:52.928Z,-5.70
2018-03-20T02:02:21.458Z,-5.70
2018-03-20T02:04:50.695Z,-5.70
2018-03-20T02:07:20.165Z,-5.60
2018-03-20T02:09:48.942Z,-5.70
2018-03-20T02:12:19.079Z,-5.60
2018-03-20T02:14:47.559Z,-5.90
2018-03-20T02:17:16.256Z,-6.20
2018-03-20T02:19:45.104Z,-6.20
2018-03-20T02:22:14.155Z,-6.20
2018-03-20T02:24:44.911Z,-6.30
2018-03-20T02:27:13.555Z,-6.40
2018-03-20T02:29:42.043Z,-6.30
2018-03-20T02:32:12.823Z,-6.10
2018-03-20T02:34:41.886Z,-6.10
2018-03-20T02:37:10.617Z,-6.00
2018-03-20T02:39:38.893Z,-6.10
2018-03-20T02:42:07.576Z,-6.10
2018-03-20T02:44:37.473Z,-6.10
2018-03-20T02:47:05.903Z,-6.20
2018-03-20T02:49:34.969Z,-6.10
2018-03-20T02:52:03.792Z,-6.20
2018-03-20T02:54:33.069Z,-6.30
2018-03-20T02:57:01.606Z,-6.30
2018-03-20T02:59:30.836Z,-6.30
2018-03-20T03:01:59.420Z,-6.20
2018-03-20T03:04:27.988Z,-6.20
2018-03-20T03:06:56.497Z,-6.30
2018-03-20T03:09:25.808Z,-6.40
2018-03-20T03:11:54.401Z,-6.40
2018-03-20T03:14:22.799Z,-6.50
2018-03-20T03:16:51.161Z,-6.30
2018-03-20T03:19:20.420Z,-6.40
2018-03-20T03:21:49.170Z,-6.40
2018-03-20T03:24:18.340Z,-6.40
2018-03-20T03:26:47.340Z,-6.30
2018-03-20T03:29:15.481Z,-6.40
2018-03-20T03:31:44.043Z,-6.30
2018-03-20T03:34:13.239Z,-6.30
2018-03-20T03:36:42.884Z,-6.40
2018-03-20T03:39:11.180Z,-6.40
2018-03-20T03:41:40.378Z,-6.30
2018-03-20T03:44:12.611Z,-6.40
2018-03-20T03:46:41.234Z,-6.30
2018-03-20T03:49:09.753Z,-6.40
2018-03-20T03:51:38.676Z,-6.50
2018-03-20T03:54:11.128Z,-6.40
2018-03-20T03:56:44.388Z,-6.50
2018-03-20T03:59:13.474Z,-6.40
2018-03-20T04:01:41.757Z,-6.50
2018-03-20T04:04:13.863Z,-6.50
2018-03-20T04:06:43.844Z,-6.60
2018-03-20T04:09:12.595Z,-6.60
2018-03-20T04:11:41.936Z,-6.60
2018-03-20T04:14:11.044Z,-6.60
2018-03-20T04:16:40.765Z,-6.60
2018-03-20T04:19:09.177Z,-6.60
2018-03-20T04:21:38.022Z,-6.60
2018-03-20T04:24:07.932Z,-6.60
2018-03-20T04:26:36.100Z,-6.70
2018-03-20T04:29:04.426Z,-6.70
2018-03-20T04:31:32.696Z,-6.70
2018-03-20T04:34:01.210Z,-6.70
2018-03-20T04:36:30.657Z,-6.70
2018-03-20T04:38:59.057Z,-6.70
2018-03-20T04:41:27.553Z,-6.70
2018-03-20T04:43:55.920Z,-6.70
2018-03-20T04:46:25.111Z,-6.70
2018-03-20T04:48:54.647Z,-6.80
2018-03-20T04:51:23.209Z,-6.80
2018-03-20T04:53:52.715Z,-6.90
2018-03-20T04:56:22.343Z,-6.90
2018-03-20T04:58:51.091Z,-6.90
2018-03-20T05:01:19.774Z,-6.90
2018-03-20T05:03:48.480Z,-6.90
2018-03-20T05:06:18.002Z,-6.90
2018-03-20T05:08:47.166Z,-6.80
2018-03-20T05:11:15.499Z,-6.80
2018-03-20T05:13:44.618Z,-6.90
2018-03-20T05:16:13.552Z,-6.90
2018-03-20T05:18:42.889Z,-6.80
2018-03-20T05:21:11.870Z,-6.80
2018-03-20T05:23:40.769Z,-6.80
2018-03-20T05:26:09.652Z,-6.70
2018-03-20T05:28:38.627Z,-6.70
2018-03-20T05:31:08.410Z,-6.60
2018-03-20T05:33:38.231Z,-6.60
2018-03-20T05:36:07.877Z,-6.80
2018-03-20T05:38:36.810Z,-6.80
2018-03-20T05:41:07.213Z,-6.60
2018-03-20T05:43:36.402Z,-6.50
2018-03-20T05:46:05.768Z,-6.40
2018-03-20T05:48:36.710Z,-6.60
2018-03-20T05:51:07.379Z,-6.40
2018-03-20T05:53:36.848Z,-6.50
2018-03-20T05:56:06.184Z,-6.30
2018-03-20T05:58:35.333Z,-6.30
2018-03-20T06:01:04.187Z,-6.30
2018-03-20T06:03:33.645Z,-6.10
2018-03-20T06:06:02.914Z,-6.10
2018-03-20T06:08:32.980Z,-6.00
2018-03-20T06:11:02.095Z,-6.00
2018-03-20T06:13:31.306Z,-6.00
2018-03-20T06:16:00.892Z,-5.80
2018-03-20T06:18:30.464Z,-5.80
2018-03-20T06:20:59.388Z,-5.60
2018-03-20T06:23:28.218Z,-5.40
2018-03-20T06:25:57.343Z,-5.50
2018-03-20T06:28:27.268Z,-5.40
2018-03-20T06:30:56.354Z,-5.20
2018-03-20T06:33:25.235Z,-5.20
2018-03-20T06:35:54.382Z,-5.70
2018-03-20T06:38:23.614Z,-5.60
2018-03-20T06:40:53.494Z,-5.20
2018-03-20T06:43:22.596Z,-5.20
2018-03-20T06:45:51.569Z,-5.20
2018-03-20T06:48:20.242Z,-5.30
2018-03-20T06:50:49.413Z,-5.40
2018-03-20T06:53:18.144Z,-5.20
2018-03-20T06:55:47.029Z,-5.10
2018-03-20T06:58:15.977Z,-5.00
2018-03-20T07:00:46.233Z,-5.10
2018-03-20T07:03:15.482Z,-5.10
2018-03-20T07:05:45.779Z,-5.00
2018-03-20T07:08:16.427Z,-5.10
2018-03-20T07:10:46.326Z,-4.80
2018-03-20T07:13:15.919Z,-4.80
2018-03-20T07:15:45.502Z,-4.70
2018-03-20T07:18:15.004Z,-4.70
2018-03-20T07:20:44.564Z,-4.70
2018-03-20T07:23:13.807Z,-4.70
2018-03-20T07:25:43.612Z,-4.60
2018-03-20T07:28:13.217Z,-4.60
2018-03-20T07:30:42.623Z,-4.50
2018-03-20T07:33:12.363Z,-4.60
2018-03-20T07:35:42.614Z,-4.40
2018-03-20T07:38:13.056Z,-4.50
2018-03-20T07:40:43.737Z,-4.50
2018-03-20T07:43:13.368Z,-4.40
2018-03-20T07:45:49.632Z,-4.40
2018-03-20T07:48:19.172Z,-4.40
2018-03-20T07:50:48.396Z,-4.30
2018-03-20T07:53:17.616Z,-4.20
2018-03-20T07:55:46.890Z,-4.20
2018-03-20T07:58:16.479Z,-4.10
2018-03-20T08:00:45.778Z,-4.10
2018-03-20T08:03:16.196Z,-3.90
2018-03-20T08:05:45.867Z,-3.90
2018-03-20T08:08:15.059Z,-3.90
2018-03-20T08:10:45.359Z,-3.80
2018-03-20T08:13:15.912Z,-3.70
2018-03-20T08:15:45.328Z,-3.80
2018-03-20T08:18:16.148Z,-3.60
2018-03-20T08:20:46.295Z,-3.60
2018-03-20T08:23:17.236Z,-3.40
2018-03-20T08:25:47.074Z,-3.50
2018-03-20T08:28:17.610Z,-3.30
2018-03-20T08:30:47.347Z,-3.10
2018-03-20T08:33:17.817Z,-3.10
2018-03-20T08:35:48.212Z,-3.10
2018-03-20T08:38:17.518Z,-3.10
2018-03-20T08:40:48.233Z,-3.10
2018-03-20T08:43:18.377Z,-3.10
2018-03-20T08:45:48.476Z,-3.10
2018-03-20T08:48:17.638Z,-3.20
2018-03-20T08:50:46.625Z,-2.90
2018-03-20T08:53:15.976Z,-2.90
2018-03-20T08:55:46.018Z,-2.90
2018-03-20T08:58:16.442Z,-2.90
2018-03-20T09:00:46.588Z,-2.90
2018-03-20T09:03:16.141Z,-2.90
2018-03-20T09:05:45.747Z,-2.80
2018-03-20T09:08:15.049Z,-2.50
2018-03-20T09:10:46.766Z,-2.60
2018-03-20T09:13:16.673Z,-2.60
2018-03-20T09:15:45.727Z,-2.60
2018-03-20T09:18:15.877Z,-2.90
2018-03-20T09:20:45.686Z,-2.90
2018-03-20T09:23:14.631Z,-2.80
2018-03-20T09:25:43.937Z,-2.80
2018-03-20T09:28:13.637Z,-2.70
2018-03-20T09:30:43.474Z,-2.50
2018-03-20T09:33:12.973Z,-2.70
2018-03-20T09:35:42.189Z,-2.60
2018-03-20T09:38:11.450Z,-2.40
2018-03-20T09:40:40.570Z,-2.40
2018-03-20T09:43:11.127Z,-2.40
2018-03-20T09:45:41.819Z,-2.50
2018-03-20T09:48:12.387Z,-2.30
2018-03-20T09:50:41.824Z,-2.30
2018-03-20T09:53:11.014Z,-2.30
2018-03-20T09:55:40.076Z,-2.20
2018-03-20T09:58:09.029Z,-2.30
2018-03-20T10:00:38.502Z,-2.40
2018-03-20T10:03:08.536Z,-2.40
2018-03-20T10:05:38.365Z,-2.30
2018-03-20T10:08:09.929Z,-2.40
2018-03-20T10:10:39.871Z,-2.10
2018-03-20T10:13:09.478Z,-2.20
2018-03-20T10:15:39.133Z,-2.20
2018-03-20T10:18:08.173Z,-2.20
2018-03-20T10:20:37.181Z,-2.40
2018-03-20T10:23:07.557Z,-2.20
2018-03-20T10:25:36.660Z,-2.20
2018-03-20T10:28:06.853Z,-2.00
2018-03-20T10:30:36.438Z,-2.00
2018-03-20T10:33:05.412Z,-1.90
2018-03-20T10:35:34.253Z,-1.80
2018-03-20T10:38:03.346Z,-1.70
2018-03-20T10:40:34.002Z,-1.70
2018-03-20T10:43:04.624Z,-1.60
2018-03-20T10:48:56.012Z,-1.80
2018-03-20T10:51:25.821Z,-1.70
2018-03-20T10:54:14.117Z,-1.70
2018-03-20T10:56:44.534Z,-1.60
2018-03-20T10:59:16.339Z,-1.70
2018-03-20T11:01:45.748Z,-1.60
2018-03-20T11:04:15.564Z,-1.70
2018-03-20T11:06:45.134Z,-1.70
2018-03-20T11:09:14.274Z,-1.70
2018-03-20T11:11:44.336Z,-1.70
2018-03-20T11:14:13.983Z,-1.80
2018-03-20T11:16:43.990Z,-1.70
2018-03-20T11:19:13.254Z,-1.90
2018-03-20T11:21:43.309Z,-1.80
2018-03-20T11:24:12.496Z,-1.70
2018-03-20T11:26:42.218Z,-1.50
2018-03-20T11:29:12.952Z,-1.50
2018-03-20T11:31:42.731Z,-1.40
2018-03-20T11:34:12.673Z,-1.40
2018-03-20T11:39:18.176Z,-1.60
2018-03-20T11:41:47.147Z,-1.50
2018-03-20T11:44:16.791Z,-1.40
2018-03-20T11:46:45.696Z,-1.40
2018-03-20T11:49:15.386Z,-1.40
2018-03-20T11:51:45.481Z,-1.20
2018-03-20T11:54:15.521Z,-1.20
2018-03-20T11:56:45.391Z,-1.20
2018-03-20T11:59:14.762Z,-1.20
2018-03-20T12:01:44.028Z,-1.10
2018-03-20T12:04:13.002Z,-1.50
2018-03-20T12:06:42.818Z,-1.20
2018-03-20T12:09:17.999Z,-1.20
2018-03-20T12:11:46.908Z,-1.20
2018-03-20T12:14:17.634Z,-1.20
2018-03-20T12:16:47.883Z,-1.20
2018-03-20T12:19:18.016Z,-1.30
2018-03-20T12:21:47.213Z,-1.30
2018-03-20T12:24:17.113Z,-1.20
2018-03-20T12:26:46.199Z,-1.20
2018-03-20T12:29:15.366Z,-1.50
2018-03-20T12:31:44.399Z,-1.30
2018-03-20T12:34:13.238Z,-1.20
2018-03-20T12:36:42.181Z,-1.30
2018-03-20T12:39:11.783Z,-1.30
2018-03-20T12:41:40.777Z,-1.30
2018-03-20T12:44:09.972Z,-1.30
2018-03-20T12:46:38.999Z,-1.20
2018-03-20T12:49:08.562Z,-1.20
2018-03-20T12:51:37.543Z,-1.20
2018-03-20T12:54:06.903Z,-1.10
2018-03-20T12:56:35.761Z,-1.10
2018-03-20T12:59:05.684Z,-0.90
2018-03-20T13:01:35.540Z,-0.80
2018-03-20T13:04:04.549Z,-0.80
2018-03-20T13:06:33.641Z,-0.70
2018-03-20T13:09:02.506Z,-0.50
2018-03-20T13:11:31.794Z,-0.50
2018-03-20T13:14:00.756Z,-0.40
2018-03-20T13:16:30.553Z,-0.20
2018-03-20T13:19:00.414Z,-0.20
2018-03-20T13:21:29.463Z,0.00
2018-03-20T13:23:58.398Z,0.10
2018-03-20T13:26:28.171Z,0.00
2018-03-20T13:28:57.920Z,0.00
2018-03-20T13:31:27.433Z,-0.10
2018-03-20T13:33:56.456Z,-0.20
2018-03-20T13:36:26.197Z,-0.10
2018-03-20T13:38:55.372Z,0.00
2018-03-20T13:41:24.476Z,-0.10
2018-03-20T13:43:53.411Z,0.00
2018-03-20T13:46:22.612Z,0.10
2018-03-20T13:48:54.090Z,0.00
2018-03-20T13:51:23.269Z,0.00
2018-03-20T13:53:52.309Z,0.20
2018-03-20T13:56:21.253Z,0.30
2018-03-20T13:58:50.163Z,0.40
2018-03-20T14:01:19.106Z,0.50
2018-03-20T14:03:48.017Z,0.50
2018-03-20T14:06:17.115Z,0.50
2018-03-20T14:08:45.895Z,0.60
2018-03-20T14:11:14.700Z,0.70
2018-03-20T14:13:43.828Z,0.70
2018-03-20T14:16:12.792Z,0.60
2018-03-20T14:18:41.746Z,0.70
2018-03-20T14:21:10.896Z,0.80
2018-03-20T14:23:47.681Z,0.80
2018-03-20T14:26:18.602Z,0.80
2018-03-20T14:28:49.706Z,0.70
2018-03-20T14:31:19.280Z,0.80
2018-03-20T14:33:48.777Z,0.90
2018-03-20T14:36:17.792Z,0.80
2018-03-20T14:38:47.467Z,0.90
2018-03-20T14:41:16.837Z,0.80
2018-03-20T14:43:45.758Z,0.80
2018-03-20T14:46:14.556Z,0.90
2018-03-20T14:48:43.365Z,0.90
2018-03-20T14:51:12.932Z,0.90
2018-03-20T14:53:42.592Z,0.90
2018-03-20T14:56:11.677Z,0.90
2018-03-20T14:58:40.979Z,0.90
2018-03-20T15:01:10.241Z,0.90
2018-03-20T15:03:39.333Z,0.90
2018-03-20T15:06:08.123Z,1.00
2018-03-20T15:08:36.938Z,0.90
2018-03-20T15:11:06.554Z,1.00
2018-03-20T15:13:35.484Z,1.00
2018-03-20T15:16:04.471Z,1.00
2018-03-20T15:18:33.869Z,1.00
2018-03-20T15:21:02.747Z,1.00
2018-03-20T15:23:32.473Z,1.10
2018-03-20T15:26:01.480Z,1.10
2018-03-20T15:28:30.342Z,1.30
2018-03-20T15:30:59.462Z,1.30
2018-03-20T15:33:28.359Z,1.30
2018-03-20T15:35:57.003Z,1.30
2018-03-20T15:38:25.772Z,1.30
2018-03-20T15:40:55.179Z,1.30
2018-03-20T15:43:24.422Z,1.30
2018-03-20T15:45:53.188Z,1.30
2018-03-20T15:48:21.868Z,1.30
2018-03-20T15:50:50.673Z,1.20
2018-03-20T15:53:20.485Z,1.30
2018-03-20T15:55:49.148Z,1.30
2018-03-20T15:58:17.866Z,1.30
2018-03-20T16:00:46.502Z,1.30
2018-03-20T16:03:15.888Z,1.20
2018-03-20T16:05:44.479Z,1.20
2018-03-20T16:08:14.064Z,1.20
2018-03-20T16:10:42.796Z,1.20
2018-03-20T16:13:11.438Z,1.20
2018-03-20T16:15:40.132Z,1.30
2018-03-20T16:18:08.770Z,1.30
2018-03-20T16:20:38.464Z,1.30
2018-03-20T16:23:07.092Z,1.30
2018-03-20T16:25:36.696Z,1.30
2018-03-20T16:28:05.262Z,1.30
2018-03-20T16:30:34.030Z,1.30
2018-03-20T16:33:02.777Z,1.30
2018-03-20T16:35:31.342Z,1.30
2018-03-20T16:37:59.914Z,1.30
2018-03-20T16:40:28.525Z,1.30
2018-03-20T16:42:58.015Z,1.20
2018-03-20T16:45:27.315Z,1.20
2018-03-20T16:47:57.539Z,1.20
2018-03-20T16:50:26.048Z,1.20
2018-03-20T16:52:55.431Z,1.20
2018-03-20T16:55:24.101Z,1.20
2018-03-20T16:57:52.878Z,1.20
2018-03-20T17:00:21.620Z,1.30
2018-03-20T17:02:50.477Z,1.30
2018-03-20T17:05:20.001Z,1.10
2018-03-20T17:07:49.532Z,1.10
2018-03-20T17:10:18.404Z,1.10
2018-03-20T17:12:47.080Z,1.10
2018-03-20T17:15:16.930Z,1.10
2018-03-20T17:17:45.866Z,1.10
2018-03-20T17:20:15.633Z,1.20
2018-03-20T17:22:44.467Z,1.10
2018-03-20T17:25:13.010Z,1.20
2018-03-20T17:27:41.676Z,1.20
2018-03-20T17:30:10.334Z,1.10
2018-03-20T17:32:39.155Z,1.00
2018-03-20T17:35:08.506Z,1.00
2018-03-20T17:37:38.016Z,0.90
2018-03-20T17:40:07.608Z,0.60
2018-03-20T17:42:36.205Z,0.60
2018-03-20T17:45:05.536Z,0.40
2018-03-20T17:47:34.730Z,0.40
2018-03-20T17:50:03.399Z,0.40
2018-03-20T17:52:32.600Z,0.40
2018-03-20T17:55:02.295Z,0.40
2018-03-20T17:57:32.304Z,0.30
2018-03-20T18:00:00.966Z,0.30
2018-03-20T18:02:29.688Z,0.30
2018-03-20T18:04:59.031Z,0.20
2018-03-20T18:07:27.870Z,0.20
2018-03-20T18:09:56.441Z,0.10
2018-03-20T18:12:24.996Z,0.10
2018-03-20T18:14:54.334Z,0.10
2018-03-20T18:17:23.053Z,0.00
2018-03-20T18:19:51.565Z,-0.10
2018-03-20T18:22:21.442Z,-0.20
2018-03-20T18:24:50.817Z,-0.40
2018-03-20T18:27:20.695Z,-0.40
2018-03-20T18:29:50.087Z,-0.40
2018-03-20T18:32:18.819Z,-0.40
2018-03-20T18:34:48.577Z,-0.60
2018-03-20T18:37:17.298Z,-0.60
2018-03-20T18:39:46.156Z,-0.60
2018-03-20T18:42:14.626Z,-0.70
2018-03-20T18:44:44.224Z,-0.70
2018-03-20T18:47:13.506Z,-0.80
2018-03-20T18:49:43.534Z,-0.80
2018-03-20T18:52:12.066Z,-0.80
2018-03-20T18:54:41.080Z,-0.80
2018-03-20T18:57:09.900Z,-0.80
2018-03-20T18:59:38.466Z,-0.80
2018-03-20T19:02:08.458Z,-0.90
2018-03-20T19:04:37.096Z,-0.90
2018-03-20T19:07:05.976Z,-1.00
2018-03-20T19:09:34.948Z,-1.00
2018-03-20T19:12:04.427Z,-1.20
2018-03-20T19:14:33.014Z,-1.20
2018-03-20T19:17:02.471Z,-1.30
2018-03-20T19:19:31.635Z,-1.30
2018-03-20T19:22:01.523Z,-1.40
2018-03-20T19:24:30.114Z,-1.40
2018-03-20T19:26:58.796Z,-1.40
2018-03-20T19:29:27.685Z,-1.40
2018-03-20T19:31:56.547Z,-1.50
2018-03-20T19:34:25.297Z,-1.40
2018-03-20T19:36:57.337Z,-1.40
2018-03-20T19:39:26.628Z,-1.40
2018-03-20T19:41:55.425Z,-1.40
2018-03-20T19:44:24.849Z,-1.50
2018-03-20T19:46:53.531Z,-1.50
2018-03-20T19:49:22.455Z,-1.50
2018-03-20T19:51:52.575Z,-1.60
2018-03-20T19:54:21.228Z,-1.70
2018-03-20T19:56:50.369Z,-1.80
2018-03-20T20:02:03.410Z,-2.00
2018-03-20T20:04:32.766Z,-2.20
2018-03-20T20:07:01.606Z,-2.20
2018-03-20T20:09:30.379Z,-2.20
2018-03-20T20:11:59.145Z,-2.20
2018-03-20T20:14:27.773Z,-2.10
2018-03-20T20:16:56.766Z,-2.10
2018-03-20T20:19:25.675Z,-2.20
2018-03-20T20:21:54.703Z,-2.30
2018-03-20T20:24:23.667Z,-2.40
2018-03-20T20:26:53.510Z,-2.50
2018-03-20T20:29:22.413Z,-2.50
2018-03-20T20:31:51.627Z,-2.60
2018-03-20T20:34:20.298Z,-2.60
2018-03-20T20:36:49.262Z,-2.50
2018-03-20T20:39:18.046Z,-2.50
2018-03-20T20:41:46.957Z,-2.50
2018-03-20T20:44:16.804Z,-2.50
2018-03-20T20:46:45.840Z,-2.50
2018-03-20T20:49:14.556Z,-2.50
2018-03-20T20:51:43.457Z,-2.60
2018-03-20T20:54:12.193Z,-2.70
2018-03-20T20:56:41.552Z,-2.80
2018-03-20T20:59:10.207Z,-2.90
2018-03-20T21:01:38.994Z,-2.90
2018-03-20T21:04:08.203Z,-3.00
2018-03-20T21:06:36.903Z,-3.20
2018-03-20T21:09:06.212Z,-3.30
2018-03-20T21:11:35.659Z,-3.30
2018-03-20T21:14:05.349Z,-3.30
2018-03-20T21:16:34.728Z,-3.20
2018-03-20T21:19:03.440Z,-3.20
2018-03-20T21:21:32.945Z,-3.20
2018-03-20T21:24:02.650Z,-3.20
2018-03-20T21:26:32.748Z,-3.20
2018-03-20T21:29:01.374Z,-3.20
2018-03-20T21:31:30.858Z,-3.20
2018-03-20T21:34:00.430Z,-3.20
2018-03-20T21:36:30.105Z,-3.20
2018-03-20T21:38:59.277Z,-3.20
2018-03-20T21:41:28.966Z,-3.30
2018-03-20T21:43:57.560Z,-3.40
2018-03-20T21:46:26.979Z,-3.40
2018-03-20T21:48:56.451Z,-3.50
2018-03-20T21:51:25.276Z,-3.50
2018-03-20T21:53:54.503Z,-3.50
2018-03-20T21:56:24.223Z,-3.40
2018-03-20T21:58:53.059Z,-3.50
2018-03-20T22:01:22.860Z,-3.50
2018-03-20T22:03:52.527Z,-3.40
2018-03-20T22:06:22.176Z,-3.40
2018-03-20T22:08:51.676Z,-3.60
2018-03-20T22:11:20.824Z,-3.60
2018-03-20T22:13:50.037Z,-3.60
2018-03-20T22:16:20.803Z,-3.70
2018-03-20T22:18:49.985Z,-3.70
2018-03-20T22:21:25.516Z,-3.70
2018-03-20T22:23:56.291Z,-3.80
2018-03-20T22:26:26.305Z,-3.80
2018-03-20T22:28:56.539Z,-3.80
2018-03-20T22:31:26.691Z,-4.00
2018-03-20T22:33:55.644Z,-4.00
2018-03-20T22:36:26.352Z,-4.00
2018-03-20T22:38:56.461Z,-4.00
2018-03-20T22:41:26.147Z,-4.00
2018-03-20T22:43:55.483Z,-4.10
2018-03-20T22:46:24.568Z,-4.20
2018-03-20T22:48:54.231Z,-4.30
2018-03-20T22:51:23.260Z,-4.30
2018-03-20T22:53:52.693Z,-4.20
2018-03-20T22:56:23.252Z,-4.30
2018-03-20T22:58:52.307Z,-4.30
2018-03-20T23:01:21.426Z,-4.30
2018-03-20T23:03:51.047Z,-4.40
2018-03-20T23:06:20.071Z,-4.40
2018-03-20T23:08:49.192Z,-4.40
2018-03-20T23:11:18.089Z,-4.60
2018-03-20T23:13:47.548Z,-4.60
2018-03-20T23:16:16.742Z,-4.70
2018-03-20T23:18:46.197Z,-4.80
2018-03-20T23:21:15.997Z,-4.90
2018-03-20T23:23:45.831Z,-4.80
2018-03-20T23:26:15.347Z,-4.80
2018-03-20T23:28:45.062Z,-4.70
2018-03-20T23:31:14.056Z,-4.80
2018-03-20T23:33:43.057Z,-4.70
2018-03-20T23:36:11.974Z,-4.80
2018-03-20T23:38:41.071Z,-4.80
2018-03-20T23:41:10.748Z,-4.80
2018-03-20T23:43:39.796Z,-4.80
2018-03-20T23:46:09.720Z,-4.90
2018-03-20T23:48:39.821Z,-4.90
2018-03-20T23:51:09.223Z,-5.00
2018-03-20T23:53:38.656Z,-4.90
2018-03-20T23:56:08.421Z,-5.00
2018-03-20T23:58:38.217Z,-5.00
